createdAt,value
2022-08-08T00:07:38.277Z,0.01
2022-08-08T00:19:39.468Z,0.01
2022-08-08T00:32:20.329Z,0.16
2022-08-08T00:43:41.000Z,0.29
2022-08-08T00:55:54.098Z,0.27
2022-08-08T01:07:56.462Z,0.01
2022-08-08T01:19:52.412Z,0.00
2022-08-08T01:32:12.785Z,0.34
2022-08-08T01:43:41.904Z,0.02
2022-08-08T01:56:28.908Z,0.00
2022-08-08T02:07:48.879Z,0.01
2022-08-08T02:20:07.506Z,0.13
2022-08-08T02:31:59.150Z,0.22
2022-08-08T02:44:37.850Z,0.40
2022-08-08T02:55:44.626Z,0.14
2022-08-08T03:07:58.530Z,0.00
2022-08-08T03:19:50.434Z,0.10
2022-08-08T03:32:06.639Z,0.63
2022-08-08T03:43:46.436Z,0.08
2022-08-08T03:55:57.862Z,0.25
2022-08-08T04:07:47.375Z,0.28
2022-08-08T04:19:47.776Z,0.34
2022-08-08T04:31:58.716Z,0.86
2022-08-08T04:43:54.196Z,0.19
2022-08-08T04:55:56.069Z,0.19
2022-08-08T05:07:50.038Z,0.00
2022-08-08T05:20:09.692Z,0.26
2022-08-08T05:32:03.421Z,0.46
2022-08-08T05:44:03.254Z,0.50
2022-08-08T05:56:07.724Z,0.94
2022-08-08T06:07:52.058Z,1.95
2022-08-08T06:19:52.329Z,2.35
2022-08-08T06:32:10.030Z,2.37
2022-08-08T06:43:57.514Z,1.19
2022-08-08T06:56:02.056Z,1.66
2022-08-08T07:07:55.222Z,2.30
2022-08-08T07:19:59.772Z,1.84
2022-08-08T07:31:55.091Z,2.63
2022-08-08T07:43:55.503Z,1.01
2022-08-08T07:55:56.011Z,2.65
2022-08-08T08:07:56.470Z,3.14
2022-08-08T08:19:56.897Z,2.96
2022-08-08T08:31:58.220Z,2.60
2022-08-08T08:44:14.009Z,1.81
2022-08-08T08:56:02.572Z,3.72
2022-08-08T09:08:13.137Z,2.52
2022-08-08T09:21:56.002Z,1.72
2022-08-08T09:31:59.637Z,1.15
2022-08-08T09:44:06.112Z,3.00
2022-08-08T09:56:04.385Z,2.36
2022-08-08T10:08:01.445Z,1.44
2022-08-08T10:20:01.475Z,1.82
2022-08-08T10:32:01.912Z,1.93
2022-08-08T10:44:02.366Z,2.32
2022-08-08T10:56:02.806Z,1.38
2022-08-08T11:08:36.875Z,1.79
2022-08-08T11:20:11.058Z,0.93
2022-08-08T11:32:04.222Z,2.57
2022-08-08T11:44:04.655Z,1.94
2022-08-08T11:56:05.098Z,2.02
2022-08-08T12:08:05.557Z,2.93
2022-08-08T12:20:06.875Z,2.43
2022-08-08T12:32:09.660Z,0.91
2022-08-08T12:44:06.890Z,1.68
2022-08-08T12:56:18.214Z,1.93
2022-08-08T13:08:07.822Z,2.33
2022-08-08T13:20:08.780Z,1.83
2022-08-08T13:32:10.851Z,1.01
2022-08-08T13:44:11.086Z,2.50
2022-08-08T13:56:11.888Z,2.76
2022-08-08T14:08:11.676Z,1.92
2022-08-08T14:20:15.580Z,3.79
2022-08-08T14:32:16.052Z,1.88
2022-08-08T14:44:13.301Z,1.73
2022-08-08T14:56:12.121Z,2.74
2022-08-08T15:08:12.802Z,1.76
2022-08-08T15:20:13.955Z,1.76
2022-08-08T15:32:20.881Z,2.53
2022-08-08T15:44:14.017Z,1.99
2022-08-08T15:56:14.170Z,1.69
2022-08-08T16:08:14.644Z,1.83
2022-08-08T16:20:15.099Z,1.37
2022-08-08T16:32:20.968Z,1.79
2022-08-08T16:44:16.002Z,1.52
2022-08-08T16:56:16.514Z,1.39
2022-08-08T17:08:16.918Z,0.63
2022-08-08T17:20:18.196Z,0.54
2022-08-08T17:32:17.790Z,0.10
2022-08-08T17:44:18.303Z,0.52
2022-08-08T17:56:18.753Z,0.08
2022-08-08T18:08:24.586Z,0.00
2022-08-08T18:20:37.149Z,0.07
2022-08-08T18:32:20.369Z,0.01
2022-08-08T18:44:20.541Z,0.00
2022-08-08T18:56:21.030Z,0.07
2022-08-08T19:08:25.690Z,0.20
2022-08-08T19:20:22.009Z,0.04
2022-08-08T19:32:22.997Z,0.19
2022-08-08T19:44:26.855Z,0.00
2022-08-08T19:56:25.570Z,0.00
2022-08-08T20:08:29.240Z,0.00
2022-08-08T20:20:24.190Z,0.00
2022-08-08T20:32:25.051Z,0.13
2022-08-08T20:44:25.299Z,0.47
2022-08-08T20:56:35.393Z,0.00
2022-08-08T21:08:36.356Z,0.00
2022-08-08T21:20:33.989Z,0.00
2022-08-08T21:32:26.906Z,0.00
2022-08-08T21:44:27.403Z,0.00
2022-08-08T21:56:32.789Z,0.00
2022-08-08T22:08:28.296Z,0.00
2022-08-08T22:20:28.730Z,0.00
2022-08-08T22:32:29.224Z,0.09
2022-08-08T22:44:29.644Z,0.08
2022-08-08T22:56:30.100Z,0.00
2022-08-08T23:08:44.142Z,0.01
2022-08-08T23:20:31.045Z,0.00
2022-08-08T23:32:31.714Z,0.00
2022-08-08T23:44:31.910Z,0.00
2022-08-08T23:56:34.067Z,0.00
